createdAt,value
2017-06-04T00:00:20.543Z,17.40
2017-06-04T00:02:49.420Z,17.30
2017-06-04T00:05:19.041Z,17.30
2017-06-04T00:07:47.957Z,17.30
2017-06-04T00:10:17.145Z,17.30
2017-06-04T00:12:46.069Z,17.20
2017-06-04T00:15:15.151Z,17.20
2017-06-04T00:17:44.052Z,17.20
2017-06-04T00:20:14.281Z,17.20
2017-06-04T00:22:44.893Z,17.20
2017-06-04T00:25:15.118Z,17.20
2017-06-04T00:27:43.985Z,17.20
2017-06-04T00:30:13.830Z,17.20
2017-06-04T00:32:42.724Z,17.10
2017-06-04T00:35:12.471Z,17.10
2017-06-04T00:37:41.385Z,17.10
2017-06-04T00:40:10.304Z,17.10
2017-06-04T00:42:39.160Z,17.10
2017-06-04T00:45:10.861Z,17.10
2017-06-04T00:47:39.742Z,17.10
2017-06-04T00:50:10.239Z,17.00
2017-06-04T00:52:39.104Z,16.90
2017-06-04T00:55:13.362Z,17.00
2017-06-04T00:57:42.237Z,17.00
2017-06-04T01:00:12.870Z,17.10
2017-06-04T01:02:41.774Z,17.10
2017-06-04T01:05:12.982Z,17.10
2017-06-04T01:07:41.820Z,17.00
2017-06-04T01:10:10.892Z,17.00
2017-06-04T01:12:39.762Z,17.00
2017-06-04T01:15:09.335Z,16.90
2017-06-04T01:17:38.271Z,16.90
2017-06-04T01:20:11.518Z,17.00
2017-06-04T01:22:40.464Z,17.00
2017-06-04T01:25:10.679Z,17.00
2017-06-04T01:27:42.777Z,17.00
2017-06-04T01:30:14.315Z,17.00
2017-06-04T01:32:43.186Z,17.00
2017-06-04T01:35:13.813Z,17.00
2017-06-04T01:37:42.802Z,17.00
2017-06-04T01:40:12.016Z,17.00
2017-06-04T01:42:40.932Z,17.00
2017-06-04T01:45:10.438Z,16.90
2017-06-04T01:47:39.422Z,16.80
2017-06-04T01:50:11.356Z,16.70
2017-06-04T01:52:40.563Z,16.70
2017-06-04T01:55:10.713Z,16.70
2017-06-04T01:57:39.625Z,16.70
2017-06-04T02:00:14.494Z,16.70
2017-06-04T02:02:43.377Z,16.70
2017-06-04T02:05:12.418Z,16.70
2017-06-04T02:07:41.324Z,16.60
2017-06-04T02:10:11.856Z,16.60
2017-06-04T02:12:40.725Z,16.60
2017-06-04T02:15:11.358Z,16.50
2017-06-04T02:17:40.386Z,16.50
2017-06-04T02:20:10.237Z,16.40
2017-06-04T02:22:39.133Z,16.40
2017-06-04T02:25:08.133Z,16.40
2017-06-04T02:27:37.402Z,16.40
2017-06-04T02:30:08.560Z,16.30
2017-06-04T02:32:37.459Z,16.30
2017-06-04T02:35:07.714Z,16.30
2017-06-04T02:37:36.652Z,16.30
2017-06-04T02:40:08.357Z,16.30
2017-06-04T02:42:37.528Z,16.20
2017-06-04T02:45:07.767Z,16.10
2017-06-04T02:47:36.622Z,16.10
2017-06-04T02:50:07.011Z,16.20
2017-06-04T02:52:35.880Z,16.20
2017-06-04T02:55:05.146Z,16.10
2017-06-04T02:57:34.050Z,16.10
2017-06-04T03:00:05.070Z,16.10
2017-06-04T03:02:33.912Z,16.00
2017-06-04T03:05:02.987Z,16.00
2017-06-04T03:07:31.966Z,16.00
2017-06-04T03:10:01.091Z,15.90
2017-06-04T03:12:30.794Z,15.90
2017-06-04T03:15:00.563Z,15.90
2017-06-04T03:17:29.787Z,15.70
2017-06-04T03:19:58.742Z,15.60
2017-06-04T03:22:27.632Z,15.50
2017-06-04T03:24:56.733Z,15.30
2017-06-04T03:27:25.782Z,15.20
2017-06-04T03:29:54.770Z,15.00
2017-06-04T03:32:24.038Z,14.90
2017-06-04T03:34:53.405Z,14.80
2017-06-04T03:37:22.375Z,14.80
2017-06-04T03:39:51.403Z,14.80
2017-06-04T03:42:20.283Z,14.70
2017-06-04T03:44:49.370Z,14.70
2017-06-04T03:47:18.557Z,14.70
2017-06-04T03:49:47.638Z,14.60
2017-06-04T03:52:16.530Z,14.60
2017-06-04T03:54:45.617Z,14.60
2017-06-04T03:57:14.846Z,14.70
2017-06-04T03:59:43.728Z,14.60
2017-06-04T04:02:12.711Z,14.60
2017-06-04T04:04:41.572Z,14.60
2017-06-04T04:07:10.424Z,14.60
2017-06-04T04:09:39.587Z,14.60
2017-06-04T04:12:08.972Z,14.60
2017-06-04T04:14:37.820Z,14.70
2017-06-04T04:17:06.722Z,14.70
2017-06-04T04:19:35.577Z,14.70
2017-06-04T04:22:04.478Z,14.60
2017-06-04T04:24:33.557Z,14.60
2017-06-04T04:27:03.181Z,14.60
2017-06-04T04:29:32.270Z,14.70
2017-06-04T04:32:01.635Z,14.70
2017-06-04T04:34:30.566Z,14.70
2017-06-04T04:36:59.446Z,14.70
2017-06-04T04:39:29.280Z,14.70
2017-06-04T04:41:58.300Z,14.60
2017-06-04T04:44:27.159Z,14.60
2017-06-04T04:47:27.228Z,14.60
2017-06-04T04:49:56.361Z,14.60
2017-06-04T04:52:25.310Z,14.60
2017-06-04T04:54:55.065Z,14.70
2017-06-04T04:57:24.091Z,14.60
2017-06-04T04:59:53.161Z,14.70
2017-06-04T05:02:22.033Z,14.70
2017-06-04T05:04:50.906Z,14.70
2017-06-04T05:07:19.796Z,14.70
2017-06-04T05:09:48.990Z,14.70
2017-06-04T05:12:18.824Z,14.80
2017-06-04T05:14:47.723Z,14.70
2017-06-04T05:17:16.848Z,14.80
2017-06-04T05:19:45.973Z,14.80
2017-06-04T05:22:19.049Z,14.80
2017-06-04T05:24:47.997Z,14.80
2017-06-04T05:27:21.845Z,14.80
2017-06-04T05:29:51.705Z,14.80
2017-06-04T05:32:20.619Z,14.80
2017-06-04T05:34:49.509Z,14.80
2017-06-04T05:37:18.703Z,14.80
2017-06-04T05:39:47.685Z,14.80
2017-06-04T05:42:16.592Z,14.80
2017-06-04T05:44:45.711Z,14.80
2017-06-04T05:47:14.584Z,14.80
2017-06-04T05:49:43.533Z,14.80
2017-06-04T05:52:12.563Z,14.80
2017-06-04T05:54:41.464Z,14.70
2017-06-04T05:57:10.328Z,14.70
2017-06-04T05:59:39.240Z,14.60
2017-06-04T06:02:08.209Z,14.60
2017-06-04T06:04:37.090Z,14.50
2017-06-04T06:07:06.701Z,14.50
2017-06-04T06:09:35.581Z,14.40
2017-06-04T06:12:04.857Z,14.40
2017-06-04T06:14:33.764Z,14.30
2017-06-04T06:17:02.658Z,14.20
2017-06-04T06:19:31.656Z,14.20
2017-06-04T06:22:00.537Z,14.20
2017-06-04T06:24:29.497Z,14.20
2017-06-04T06:26:58.473Z,14.20
2017-06-04T06:29:27.424Z,14.20
2017-06-04T06:31:56.353Z,14.20
2017-06-04T06:34:25.368Z,14.20
2017-06-04T06:36:54.272Z,14.20
2017-06-04T06:39:23.201Z,14.20
2017-06-04T06:41:52.370Z,14.20
2017-06-04T06:44:21.292Z,14.20
2017-06-04T06:46:50.278Z,14.20
2017-06-04T06:49:19.194Z,14.20
2017-06-04T06:51:48.061Z,14.10
2017-06-04T06:54:17.021Z,14.10
2017-06-04T06:56:46.011Z,14.10
2017-06-04T06:59:14.916Z,14.10
2017-06-04T07:01:43.828Z,14.20
2017-06-04T07:04:12.781Z,14.30
2017-06-04T07:06:41.706Z,14.30
2017-06-04T07:09:10.572Z,14.40
2017-06-04T07:11:39.533Z,14.40
2017-06-04T07:14:08.450Z,14.40
2017-06-04T07:16:37.334Z,14.50
2017-06-04T07:19:06.201Z,14.60
2017-06-04T07:21:35.048Z,14.60
2017-06-04T07:24:04.007Z,14.60
2017-06-04T07:26:32.947Z,14.50
2017-06-04T07:29:01.913Z,14.40
2017-06-04T07:31:30.859Z,14.40
2017-06-04T07:33:59.756Z,14.40
2017-06-04T07:36:28.755Z,14.40
2017-06-04T07:38:57.675Z,14.50
2017-06-04T07:41:26.691Z,14.50
2017-06-04T07:43:55.630Z,14.60
2017-06-04T07:46:24.524Z,14.70
2017-06-04T07:48:54.465Z,14.80
2017-06-04T07:51:23.392Z,15.10
2017-06-04T07:53:52.346Z,15.30
2017-06-04T07:56:21.404Z,15.50
2017-06-04T07:58:50.294Z,15.60
2017-06-04T08:01:19.259Z,15.70
2017-06-04T08:03:48.171Z,15.90
2017-06-04T08:06:17.082Z,16.00
2017-06-04T08:08:46.011Z,16.20
2017-06-04T08:11:15.094Z,16.40
2017-06-04T08:13:44.037Z,16.40
2017-06-04T08:16:13.046Z,16.50
2017-06-04T08:18:42.042Z,16.80
2017-06-04T08:21:10.992Z,16.80
2017-06-04T08:23:39.933Z,17.00
2017-06-04T08:26:09.109Z,17.00
2017-06-04T08:28:38.053Z,17.00
2017-06-04T08:31:07.052Z,17.10
2017-06-04T08:33:36.002Z,17.10
2017-06-04T08:36:09.200Z,17.20
2017-06-04T08:38:38.748Z,17.30
2017-06-04T08:41:10.562Z,17.40
2017-06-04T08:43:39.541Z,17.40
2017-06-04T08:46:09.532Z,17.70
2017-06-04T08:48:38.484Z,17.90
2017-06-04T08:51:09.474Z,18.10
2017-06-04T08:53:38.503Z,18.20
2017-06-04T08:56:08.267Z,18.30
2017-06-04T08:58:37.267Z,18.30
2017-06-04T09:01:08.539Z,18.30
2017-06-04T09:03:37.556Z,18.40
2017-06-04T09:06:08.637Z,18.60
2017-06-04T09:08:37.543Z,18.50
2017-06-04T09:11:11.555Z,18.70
2017-06-04T09:13:40.494Z,18.90
2017-06-04T09:16:09.417Z,19.30
2017-06-04T09:18:38.371Z,19.70
2017-06-04T09:21:07.722Z,20.10
2017-06-04T09:23:36.634Z,20.50
2017-06-04T09:26:07.442Z,21.10
2017-06-04T09:28:36.402Z,21.00
2017-06-04T09:31:05.777Z,20.80
2017-06-04T09:33:36.508Z,20.40
2017-06-04T09:36:07.188Z,20.10
2017-06-04T09:38:36.162Z,20.30
2017-06-04T09:41:09.831Z,20.80
2017-06-04T09:43:38.799Z,20.90
2017-06-04T09:46:08.752Z,21.10
2017-06-04T09:48:44.890Z,21.00
2017-06-04T09:51:14.456Z,20.90
2017-06-04T09:53:43.484Z,21.20
2017-06-04T09:56:12.394Z,21.80
2017-06-04T09:58:41.313Z,22.30
2017-06-04T10:01:10.567Z,22.30
2017-06-04T10:03:39.597Z,22.20
2017-06-04T10:06:09.473Z,21.90
2017-06-04T10:09:57.547Z,21.70
2017-06-04T10:12:26.575Z,22.00
2017-06-04T10:14:55.536Z,22.70
2017-06-04T10:17:24.980Z,23.50
2017-06-04T10:19:53.986Z,24.40
2017-06-04T10:22:23.073Z,25.00
2017-06-04T10:24:52.075Z,25.20
2017-06-04T10:27:21.356Z,24.80
2017-06-04T10:29:50.938Z,25.70
2017-06-04T10:32:19.931Z,26.00
2017-06-04T10:34:48.892Z,25.70
2017-06-04T10:37:17.909Z,25.20
2017-06-04T10:39:46.926Z,25.50
2017-06-04T10:42:16.072Z,25.40
2017-06-04T10:44:45.102Z,25.00
2017-06-04T10:47:14.137Z,25.00
2017-06-04T10:49:43.203Z,24.50
2017-06-04T10:52:26.638Z,23.90
2017-06-04T10:54:55.657Z,24.10
2017-06-04T10:57:25.389Z,23.90
2017-06-04T10:59:54.508Z,23.00
2017-06-04T11:02:23.554Z,22.40
2017-06-04T11:04:52.529Z,22.20
2017-06-04T11:07:22.473Z,21.80
2017-06-04T11:09:51.452Z,22.40
2017-06-04T11:12:21.425Z,22.90
2017-06-04T11:14:50.352Z,24.00
2017-06-04T11:17:19.326Z,24.80
2017-06-04T11:19:48.310Z,25.70
2017-06-04T11:22:18.213Z,26.80
2017-06-04T11:24:47.244Z,27.30
2017-06-04T11:27:16.228Z,27.90
2017-06-04T11:29:45.915Z,27.30
2017-06-04T11:32:14.927Z,26.70
2017-06-04T11:34:44.117Z,24.90
2017-06-04T11:37:14.021Z,23.70
2017-06-04T11:39:44.093Z,23.40
2017-06-04T11:42:13.380Z,23.70
2017-06-04T11:44:42.437Z,24.10
2017-06-04T11:47:11.430Z,23.10
2017-06-04T11:49:42.275Z,22.50
2017-06-04T11:52:11.296Z,22.80
2017-06-04T11:54:40.277Z,22.90
2017-06-04T11:57:09.416Z,23.40
2017-06-04T11:59:38.965Z,24.00
2017-06-04T12:02:09.525Z,24.40
2017-06-04T12:04:38.468Z,24.70
2017-06-04T12:07:08.277Z,24.40
2017-06-04T12:09:37.263Z,24.60
2017-06-04T12:12:06.245Z,24.80
2017-06-04T12:14:35.328Z,24.80
2017-06-04T12:17:05.290Z,24.50
2017-06-04T12:19:34.284Z,23.70
2017-06-04T12:22:03.249Z,23.10
2017-06-04T12:24:33.305Z,22.70
2017-06-04T12:27:02.368Z,22.50
2017-06-04T12:29:31.419Z,22.90
2017-06-04T12:32:00.480Z,23.20
2017-06-04T12:34:29.528Z,23.30
2017-06-04T12:37:01.411Z,23.10
2017-06-04T12:39:30.390Z,23.20
2017-06-04T12:41:59.898Z,23.30
2017-06-04T12:44:29.510Z,23.30
2017-06-04T12:46:58.800Z,23.30
2017-06-04T12:49:30.048Z,22.90
2017-06-04T12:51:59.019Z,22.90
2017-06-04T12:54:31.046Z,23.10
2017-06-04T12:57:00.133Z,22.80
2017-06-04T12:59:29.359Z,22.90
2017-06-04T13:01:59.034Z,23.20
2017-06-04T13:04:28.731Z,23.00
2017-06-04T13:06:57.758Z,22.90
2017-06-04T13:09:30.108Z,22.70
2017-06-04T13:12:00.023Z,22.00
2017-06-04T13:14:31.689Z,21.70
2017-06-04T13:17:00.714Z,21.40
2017-06-04T13:19:30.457Z,21.30
2017-06-04T13:21:59.615Z,21.30
2017-06-04T13:24:28.871Z,22.00
2017-06-04T13:26:58.444Z,22.30
2017-06-04T13:29:29.439Z,22.30
2017-06-04T13:31:59.423Z,22.40
2017-06-04T13:34:31.993Z,22.40
2017-06-04T13:37:10.733Z,22.40
2017-06-04T13:39:43.531Z,22.50
2017-06-04T13:42:19.924Z,22.20
2017-06-04T13:44:49.198Z,22.20
2017-06-04T13:47:19.239Z,21.90
2017-06-04T13:49:53.521Z,21.60
2017-06-04T13:52:26.715Z,21.50
2017-06-04T13:54:56.159Z,21.10
2017-06-04T13:57:27.737Z,21.00
2017-06-04T13:59:56.879Z,21.30
2017-06-04T14:02:28.299Z,21.70
2017-06-04T14:04:57.395Z,22.00
2017-06-04T14:07:28.842Z,22.30
2017-06-04T14:09:58.086Z,22.00
2017-06-04T14:12:28.095Z,21.80
2017-06-04T14:14:57.305Z,21.80
2017-06-04T14:17:30.170Z,21.90
2017-06-04T14:19:59.328Z,21.90
2017-06-04T14:22:32.169Z,21.90
2017-06-04T14:25:01.494Z,21.90
2017-06-04T14:27:32.152Z,21.80
2017-06-04T14:30:01.663Z,21.80
2017-06-04T14:32:36.778Z,21.60
2017-06-04T14:35:14.495Z,21.30
2017-06-04T14:37:48.382Z,21.00
2017-06-04T14:40:22.458Z,21.10
2017-06-04T14:42:51.492Z,21.20
2017-06-04T14:45:25.669Z,21.20
2017-06-04T14:47:54.786Z,21.20
2017-06-04T14:50:24.649Z,21.10
2017-06-04T14:52:54.092Z,21.10
2017-06-04T14:55:25.432Z,21.20
2017-06-04T14:57:54.613Z,21.30
2017-06-04T15:00:25.002Z,21.20
2017-06-04T15:02:54.117Z,21.20
2017-06-04T15:05:24.297Z,21.10
2017-06-04T15:07:53.375Z,21.10
2017-06-04T15:10:24.215Z,21.10
2017-06-04T15:12:53.294Z,20.90
2017-06-04T15:15:22.523Z,21.00
2017-06-04T15:17:51.845Z,21.00
2017-06-04T15:20:28.334Z,20.80
2017-06-04T15:22:57.431Z,20.70
2017-06-04T15:25:26.531Z,20.70
2017-06-04T15:27:55.952Z,20.70
2017-06-04T15:30:25.150Z,20.90
2017-06-04T15:32:54.899Z,20.90
2017-06-04T15:35:25.196Z,20.90
2017-06-04T15:37:54.862Z,20.80
2017-06-04T15:40:24.657Z,20.80
2017-06-04T15:42:53.911Z,21.00
2017-06-04T15:45:23.215Z,21.10
2017-06-04T15:47:52.389Z,21.20
2017-06-04T15:53:00.756Z,21.00
2017-06-04T15:55:29.858Z,21.10
2017-06-04T15:57:58.857Z,21.00
2017-06-04T16:00:28.397Z,20.80
2017-06-04T16:02:57.438Z,20.80
2017-06-04T16:05:27.719Z,20.80
2017-06-04T16:07:57.569Z,21.00
2017-06-04T16:10:27.671Z,21.10
2017-06-04T16:12:56.768Z,21.20
2017-06-04T16:15:26.074Z,21.00
2017-06-04T16:17:55.322Z,21.00
2017-06-04T16:20:25.596Z,20.80
2017-06-04T16:22:55.092Z,20.60
2017-06-04T16:25:25.013Z,20.40
2017-06-04T16:27:54.030Z,20.20
2017-06-04T16:30:23.246Z,20.10
2017-06-04T16:32:55.503Z,20.00
2017-06-04T16:35:25.948Z,19.80
2017-06-04T16:37:55.340Z,19.90
2017-06-04T16:40:25.348Z,19.90
2017-06-04T16:42:54.382Z,19.90
2017-06-04T16:45:24.047Z,19.90
2017-06-04T16:47:53.451Z,19.80
2017-06-04T16:50:25.137Z,19.80
2017-06-04T16:52:54.158Z,19.80
2017-06-04T16:55:23.723Z,19.70
2017-06-04T16:59:12.846Z,19.70
2017-06-04T17:01:42.541Z,19.70
2017-06-04T17:04:11.707Z,19.70
2017-06-04T17:06:40.826Z,19.80
2017-06-04T17:09:11.494Z,19.80
2017-06-04T17:11:54.817Z,19.90
2017-06-04T17:14:24.370Z,19.80
2017-06-04T17:16:53.326Z,19.70
2017-06-04T17:19:23.476Z,19.70
2017-06-04T17:21:53.412Z,19.70
2017-06-04T17:24:22.754Z,19.80
2017-06-04T17:26:52.135Z,19.90
2017-06-04T17:29:21.240Z,19.90
2017-06-04T17:32:54.663Z,20.00
2017-06-04T17:35:25.313Z,20.10
2017-06-04T17:37:54.655Z,20.00
2017-06-04T17:40:24.183Z,19.80
2017-06-04T17:42:54.149Z,19.70
2017-06-04T17:45:25.145Z,19.60
2017-06-04T17:47:54.282Z,19.40
2017-06-04T17:50:24.753Z,19.30
2017-06-04T17:52:53.873Z,19.20
2017-06-04T17:55:23.885Z,19.00
2017-06-04T17:57:54.135Z,18.90
2017-06-04T18:00:26.652Z,18.80
2017-06-04T18:02:55.791Z,18.60
2017-06-04T18:05:26.816Z,18.60
2017-06-04T18:07:56.472Z,18.50
2017-06-04T18:10:26.870Z,18.30
2017-06-04T18:12:56.032Z,18.30
2017-06-04T18:15:25.106Z,18.30
2017-06-04T18:17:54.273Z,18.20
2017-06-04T18:20:24.535Z,18.10
2017-06-04T18:22:54.061Z,18.10
2017-06-04T18:25:23.474Z,18.00
2017-06-04T18:27:53.882Z,17.90
2017-06-04T18:30:23.860Z,17.90
2017-06-04T18:32:53.930Z,17.90
2017-06-04T18:35:23.971Z,17.80
2017-06-04T18:37:53.960Z,17.80
2017-06-04T18:40:25.542Z,17.70
2017-06-04T18:42:54.675Z,17.60
2017-06-04T18:45:27.939Z,17.50
2017-06-04T18:47:57.030Z,17.50
2017-06-04T18:50:30.715Z,17.50
2017-06-04T18:52:59.814Z,17.40
2017-06-04T18:55:39.252Z,17.30
2017-06-04T18:58:11.199Z,17.20
2017-06-04T19:00:44.064Z,17.10
2017-06-04T19:03:14.955Z,17.10
2017-06-04T19:05:49.220Z,17.00
2017-06-04T19:08:22.638Z,17.00
2017-06-04T19:10:54.279Z,17.00
2017-06-04T19:13:28.055Z,17.00
2017-06-04T19:15:57.659Z,16.90
2017-06-04T19:18:28.585Z,16.90
2017-06-04T19:20:59.862Z,16.90
2017-06-04T19:23:31.247Z,16.90
2017-06-04T19:28:48.799Z,16.60
2017-06-04T19:31:20.966Z,16.60
2017-06-04T19:33:52.851Z,16.50
2017-06-04T19:36:24.930Z,16.60
2017-06-04T19:38:55.910Z,16.60
2017-06-04T19:41:26.650Z,16.40
2017-06-04T19:43:59.052Z,16.40
2017-06-04T19:46:33.341Z,16.50
2017-06-04T19:49:03.068Z,16.50
2017-06-04T19:51:32.101Z,16.50
2017-06-04T19:54:01.628Z,16.40
2017-06-04T19:56:31.671Z,16.40
2017-06-04T19:59:02.375Z,16.30
2017-06-04T20:01:32.525Z,16.30
2017-06-04T20:04:02.801Z,16.20
2017-06-04T20:06:33.573Z,15.90
2017-06-04T20:09:05.444Z,15.80
2017-06-04T20:11:35.720Z,15.70
2017-06-04T20:14:10.355Z,15.60
2017-06-04T20:16:41.260Z,15.70
2017-06-04T20:19:10.595Z,15.60
2017-06-04T20:21:39.781Z,15.50
2017-06-04T20:24:11.167Z,15.60
2017-06-04T20:26:40.272Z,15.60
2017-06-04T20:29:11.162Z,15.60
2017-06-04T20:31:41.846Z,15.60
2017-06-04T20:34:12.536Z,15.60
2017-06-04T20:36:43.837Z,15.60
2017-06-04T20:39:13.005Z,15.60
2017-06-04T20:41:43.717Z,15.50
2017-06-04T20:44:12.973Z,15.50
2017-06-04T20:46:42.957Z,15.40
2017-06-04T20:49:12.526Z,15.30
2017-06-04T20:51:43.119Z,15.30
2017-06-04T20:54:13.837Z,15.20
2017-06-04T20:56:42.952Z,15.00
2017-06-04T20:59:14.425Z,15.00
2017-06-04T21:01:43.898Z,15.00
2017-06-04T21:04:13.219Z,15.00
2017-06-04T21:06:42.613Z,14.90
2017-06-04T21:09:12.600Z,14.90
2017-06-04T21:11:41.846Z,14.90
2017-06-04T21:14:11.223Z,14.90
2017-06-04T21:16:40.577Z,14.90
2017-06-04T21:19:09.734Z,14.90
2017-06-04T21:21:38.749Z,14.80
2017-06-04T21:24:08.136Z,14.60
2017-06-04T21:26:39.435Z,14.50
2017-06-04T21:29:09.299Z,14.40
2017-06-04T21:31:39.668Z,14.30
2017-06-04T21:34:08.851Z,14.30
2017-06-04T21:36:37.816Z,14.30
2017-06-04T21:39:07.224Z,14.20
2017-06-04T21:41:36.189Z,14.10
2017-06-04T21:44:06.209Z,14.00
2017-06-04T21:46:35.238Z,14.10
2017-06-04T21:49:04.819Z,14.00
2017-06-04T21:51:33.843Z,14.00
2017-06-04T21:54:02.944Z,14.00
2017-06-04T21:56:31.957Z,14.00
2017-06-04T21:59:00.853Z,14.00
2017-06-04T22:01:29.746Z,14.00
2017-06-04T22:03:58.665Z,13.90
2017-06-04T22:06:27.658Z,14.00
2017-06-04T22:08:56.541Z,13.90
2017-06-04T22:11:25.917Z,13.90
2017-06-04T22:13:54.815Z,13.90
2017-06-04T22:16:23.965Z,13.90
2017-06-04T22:18:52.931Z,14.00
2017-06-04T22:21:22.095Z,14.00
2017-06-04T22:23:50.969Z,14.00
2017-06-04T22:26:20.790Z,14.00
2017-06-04T22:28:49.782Z,14.00
2017-06-04T22:31:18.793Z,14.00
2017-06-04T22:33:48.081Z,14.00
2017-06-04T22:36:16.965Z,14.00
2017-06-04T22:38:45.855Z,14.00
2017-06-04T22:41:15.012Z,14.00
2017-06-04T22:43:43.916Z,14.10
2017-06-04T22:46:13.886Z,14.10
2017-06-04T22:48:43.056Z,14.10
2017-06-04T22:51:12.057Z,14.00
2017-06-04T22:53:41.071Z,14.10
2017-06-04T22:56:11.252Z,14.20
2017-06-04T22:58:40.243Z,14.20
2017-06-04T23:01:09.222Z,14.10
2017-06-04T23:03:38.138Z,13.90
2017-06-04T23:06:07.773Z,13.90
2017-06-04T23:08:36.666Z,13.80
2017-06-04T23:11:07.430Z,13.70
2017-06-04T23:13:36.446Z,13.60
2017-06-04T23:16:05.485Z,13.50
2017-06-04T23:18:35.070Z,13.40
2017-06-04T23:21:04.207Z,13.30
2017-06-04T23:23:33.135Z,13.30
2017-06-04T23:26:02.135Z,13.20
2017-06-04T23:28:31.087Z,13.10
2017-06-04T23:30:59.984Z,13.10
2017-06-04T23:33:28.807Z,13.00
2017-06-04T23:35:57.695Z,13.00
2017-06-04T23:38:26.619Z,13.00
2017-06-04T23:40:55.532Z,13.00
2017-06-04T23:43:24.430Z,13.10
2017-06-04T23:45:53.402Z,13.20
2017-06-04T23:48:22.322Z,13.30
2017-06-04T23:50:51.162Z,13.30
2017-06-04T23:53:20.688Z,13.40
2017-06-04T23:55:49.896Z,13.50
2017-06-04T23:58:18.845Z,13.50
